Historyczne dane pomiarowe

Dodano dane terminowe – wersja testowa.

Dane z okresu 1951-2019

Wersja bazy: 1.34 [2019-03-16, lista zmian], aktualizacja planowana na 2019-04-15

Dane meteo z obszaru Polski uzyskane na podstawie danych udostępnionych przez Instytut Meteorologii i Gospodarki Wodnej – Państwowy Instytut Badawczy.

 

Wybierz Datę:    

       

TemperaturaWilgotnośćWiatrCiśnienieOpadyŚniegCzas trwania zjawisk
 Stacja t tx tn tng RH VA  wxwx mslp ppp RRR   cm mm wxwxwxwxwxwxwx
1961-08-14 11.8 18.5 6.4--- 4.0 1.0---- 0.0------------
1961-08-13 15.8 19.0 14.1--- 8.0 0.3---- 2.0------------
1961-08-12 19.1 25.9 14.1--- 5.0 0.7---- 12.0------------
1961-08-11 24.2 31.4 16.2--- 1.3 2.7---- 0.0------------
1961-08-10 22.1 30.9 13.7--- 2.3 0.7---- 0.0------------
1961-08-09 22.3 29.9 12.8--- 3.0 0.3---- 0.0------------
1961-08-08 20.9 27.9 13.5--- 2.0 0.3---- 0.0------------
1961-08-07 21.3 27.9 17.7--- 0.7 1.0---- 0.0------------
1961-08-06 21.2 26.1 9.3--- 0.0 1.3---- 0.0------------
1961-08-05 15.8 24.0 10.5--- 5.3 0.7---- 0.0------------
1961-08-04 14.1 20.0 11.5--- 5.0 0.3---- 0.0------------
1961-08-03 16.9 23.5 6.0--- 4.7 1.0---- 0.0------------
1961-08-02 15.2 23.5 5.3--- 0.0 1.0---- 0.0------------
1961-08-01 14.7 19.5 10.9--- 5.3 2.0---- 0.0------------
1961-07-31 12.4 15.4 9.4--- 8.0 1.3---- 0.0------------
1961-07-30 10.5 12.5 9.6--- 8.0 2.7---- 11.8------------
1961-07-29 13.6 21.3 10.7--- 6.0 1.3---- 33.7------------
1961-07-28 21.9 27.4 18.2--- 6.0 4.3---- 0.4------------
1961-07-27 20.0 24.8 8.3--- 4.0 2.0---- 0.0------------
1961-07-26 12.2 20.0 2.5--- 4.0 1.0---- 0.0------------
1961-07-25 10.1 15.6 5.2--- 5.3 1.7---- 0.0------------
1961-07-24 12.5 17.5 9.4--- 7.7 1.7---- 0.0------------
1961-07-23 16.7 21.0 7.2--- 6.0 0.3---- 0.0------------
1961-07-22 14.1 18.8 10.3--- 6.7 1.0---- 8.3------------
1961-07-21 14.6 18.2 7.3--- 5.3 1.0---- 10.2------------
1961-07-20 12.5 17.0 3.8--- 7.7 1.3---- 10.4------------
1961-07-19 11.3 20.0 4.4--- 5.0 1.0---- 15.0------------
1961-07-18 12.0 19.0 7.6--- 2.7 1.0---- 0.0------------
1961-07-17 14.6 22.0 11.6--- 4.7 1.0---- 0.0------------
1961-07-16 17.9 25.1 8.0--- 5.7 1.3---- 4.4------------
1961-07-15 14.9 22.0 5.8--- 3.3 1.0---- 0.0------------
1961-07-14 12.1 17.0 10.1--- 5.3 0.0---- 7.0------------
1961-07-13 19.6 27.4 14.9--- 4.7 7.3---- 3.3------------
1961-07-12 19.3 25.4 5.8--- 2.3 1.0---- 0.0------------
1961-07-11 12.6 19.0 4.2--- 2.0 1.0---- 0.0------------
1961-07-10 14.2 19.0 10.5--- 7.7 2.0---- 0.0------------
1961-07-09 14.4 22.6 2.9--- 5.0 0.7---- 1.0------------
1961-07-08 12.8 20.0 8.2--- 2.7 1.0---- 0.0------------
1961-07-07 11.6 18.0 0.1--- 5.3 0.3---- 0.0------------
1961-07-06 9.9 17.0 4.6--- 2.7 1.0---- 0.0------------
1961-07-05 13.7 19.9 10.9--- 8.0 1.7---- 0.2------------
1961-07-04 22.4 28.9 10.3--- 2.7 0.3---- 0.0------------
1961-07-03 18.3 28.9 4.4--- 0.0 0.3---- 0.0------------
1961-07-02 15.5 25.7 5.8--- 0.0 0.3---- 0.0------------
1961-07-01 15.2 24.7 5.6--- 1.7 0.7---- 0.0------------
1961-06-30 14.5 20.5 9.6--- 4.0 0.7---- 0.0------------
1961-06-29 14.7 17.0 1.9--- 6.7 0.7---- 0.0------------
1961-06-28 12.9 24.0 8.0--- 7.0 0.0---- 0.0------------
1961-06-27 23.9 29.4 10.3--- 2.7 2.3---- 0.0------------
1961-06-26 20.3 28.4 11.8--- 0.3 1.0---- 0.0------------
1961-06-25 19.3 26.7 5.2--- 0.0 0.7---- 0.0------------
1961-06-24 15.8 24.5 6.4--- 4.3 0.7---- 0.0------------
1961-06-23 15.1 21.5 7.4--- 6.3 1.0---- 1.6------------
1961-06-22 14.9 24.4 5.4--- 1.3 1.0---- 1.6------------
1961-06-21 14.7 23.0 2.2--- 3.0 1.0---- 0.0------------
1961-06-20 13.0 18.8 8.8--- 1.3 2.0---- 0.0------------
1961-06-19 19.7 26.3 8.6--- 2.7 1.7---- 10.2------------
1961-06-18 14.7 23.5 4.2--- 2.0 0.3---- 0.0------------
1961-06-17 12.5 20.4 2.1--- 0.7 0.7---- 0.0------------
1961-06-16 12.5 18.0 8.3--- 3.0 1.0---- 0.0------------
349.1 ms

 

Źródłem pochodzenia danych jest Instytut Meteorologii i Gospodarki Wodnej – Państwowy Instytut Badawczy. Dane Instytutu Meteorologii i Gospodarki Wodnej – Państwowego Instytutu Badawczego zostały przetworzone.

Dane źródłowe można odnaleźć na stronie https://dane.imgw.pl